Time;durP1;ratioP1;P1;durP2;ratioP2;P2;SDS_P1;SDS_P2;PMS_P1;PMS_P2;Temp;Humidity;BMP_temperature;BMP_pressure;BME280_temperature;BME280_humidity;BME280_pressure;Samples;Min_cycle;Max_cycle;Signal;HPM_P1;HPM_P2
2023/09/01 00:02:25;;;;;;;2.58;1.35;;;19.30;69.60;;;;;;5005304;28;20543;-66
2023/09/01 00:04:50;;;;;;;2.58;1.50;;;19.40;69.80;;;;;;5017762;28;20113;-66
2023/09/01 00:07:16;;;;;;;1.40;1.20;;;19.30;69.60;;;;;;5011374;28;20069;-66
2023/09/01 00:09:41;;;;;;;2.05;1.30;;;19.30;69.80;;;;;;5019611;28;20048;-66
2023/09/01 00:12:07;;;;;;;1.90;1.42;;;19.30;69.60;;;;;;5008904;28;20049;-66
2023/09/01 00:14:32;;;;;;;1.50;1.20;;;19.30;69.70;;;;;;5018822;28;20045;-65
2023/09/01 00:16:58;;;;;;;2.55;1.42;;;19.30;69.80;;;;;;5017504;28;20048;-66
2023/09/01 00:19:23;;;;;;;1.55;1.23;;;19.30;69.70;;;;;;5023738;28;20041;-66
2023/09/01 00:21:50;;;;;;;2.03;1.33;;;19.30;69.80;;;;;;5022732;28;20053;-66
2023/09/01 00:24:15;;;;;;;3.90;1.75;;;19.30;69.60;;;;;;5021481;28;20531;-68
2023/09/01 00:26:41;;;;;;;2.42;1.38;;;19.30;69.80;;;;;;5017948;28;20053;-68
2023/09/01 00:29:07;;;;;;;2.80;1.45;;;19.30;69.80;;;;;;5005176;28;20064;-66
2023/09/01 00:31:35;;;;;;;2.58;1.27;;;19.30;70.00;;;;;;5004202;28;20044;-66
2023/09/01 00:34:01;;;;;;;1.83;1.52;;;19.30;69.90;;;;;;5018896;28;20096;-65
2023/09/01 00:36:26;;;;;;;2.10;1.60;;;19.30;70.00;;;;;;5019581;28;20112;-66
2023/09/01 00:38:52;;;;;;;2.90;1.77;;;19.30;70.10;;;;;;5014292;28;20034;-65
2023/09/01 00:41:17;;;;;;;3.67;1.33;;;19.30;70.00;;;;;;5017664;28;20024;-66
2023/09/01 00:43:43;;;;;;;1.85;1.58;;;19.30;70.20;;;;;;5015990;28;20033;-66
2023/09/01 00:46:08;;;;;;;2.30;1.67;;;19.30;70.10;;;;;;5019496;28;20432;-66
2023/09/01 00:48:34;;;;;;;1.73;1.35;;;19.30;70.10;;;;;;5015922;28;20488;-66
2023/09/01 00:51:00;;;;;;;2.75;1.60;;;19.30;70.00;;;;;;5006367;28;20500;-66
2023/09/01 00:53:26;;;;;;;4.10;1.70;;;19.20;70.00;;;;;;5018528;28;20029;-66
2023/09/01 00:55:53;;;;;;;1.65;1.23;;;19.20;69.90;;;;;;5022268;28;20025;-65
2023/09/01 00:58:18;;;;;;;1.70;1.10;;;19.20;70.00;;;;;;5015377;28;20035;-66
2023/09/01 01:00:44;;;;;;;2.90;1.38;;;19.20;70.50;;;;;;5019537;28;20034;-65
2023/09/01 01:03:11;;;;;;;1.83;1.30;;;19.20;69.90;;;;;;5002928;28;20037;-65
2023/09/01 01:06:11;;;;;;;2.90;1.63;;;19.20;70.00;;;;;;5021644;28;20425;-66
2023/09/01 01:09:01;;;;;;;2.42;1.48;;;19.20;70.10;;;;;;5015494;28;20083;-66
2023/09/01 01:11:49;;;;;;;2.42;1.45;;;19.20;69.80;;;;;;5018191;28;20105;-67
2023/09/01 01:14:22;;;;;;;1.55;1.40;;;19.20;69.80;;;;;;5027288;28;20506;-66
2023/09/01 01:16:50;;;;;;;3.15;1.77;;;19.20;69.80;;;;;;5020690;28;20045;-65
2023/09/01 01:19:43;;;;;;;2.58;1.30;;;19.20;69.80;;;;;;5020011;28;20029;-65
2023/09/01 01:22:08;;;;;;;2.45;1.45;;;19.20;69.90;;;;;;5008833;28;20017;-66
2023/09/01 01:24:35;;;;;;;2.72;1.38;;;19.20;69.90;;;;;;5016615;28;20523;-65
2023/09/01 01:27:01;;;;;;;2.00;1.50;;;19.20;70.10;;;;;;5018068;28;20038;-64
2023/09/01 01:29:26;;;;;;;3.42;1.40;;;19.20;69.90;;;;;;5023119;28;20022;-66
2023/09/01 01:31:53;;;;;;;2.65;1.60;;;19.20;69.90;;;;;;5022485;28;20500;-67
2023/09/01 01:34:39;;;;;;;2.00;1.38;;;19.20;70.00;;;;;;5006324;28;20026;-64
2023/09/01 01:37:21;;;;;;;1.95;1.30;;;19.20;70.10;;;;;;5008275;28;20409;-66
2023/09/01 01:39:50;;;;;;;2.72;1.40;;;19.20;70.20;;;;;;5022393;28;20026;-66
2023/09/01 01:42:18;;;;;;;1.58;1.38;;;19.20;70.10;;;;;;5005567;28;20106;-68
2023/09/01 01:44:47;;;;;;;1.92;1.33;;;19.20;70.30;;;;;;5016439;28;20030;-66
2023/09/01 01:47:14;;;;;;;2.10;1.20;;;19.10;70.00;;;;;;5015108;28;20038;-65
2023/09/01 01:49:39;;;;;;;2.25;1.60;;;19.20;70.10;;;;;;5017514;28;20129;-67
2023/09/01 01:52:05;;;;;;;1.80;1.42;;;19.20;70.10;;;;;;5016192;28;20171;-67
2023/09/01 01:54:32;;;;;;;3.13;1.50;;;19.20;70.20;;;;;;5021153;28;20040;-66
2023/09/01 01:56:58;;;;;;;1.80;1.40;;;19.20;70.30;;;;;;5015613;28;20034;-67
2023/09/01 01:59:23;;;;;;;2.60;1.70;;;19.20;70.30;;;;;;5019114;28;20128;-67
2023/09/01 02:01:49;;;;;;;1.60;1.45;;;19.20;70.40;;;;;;5018856;28;20071;-67
2023/09/01 02:04:14;;;;;;;3.17;1.50;;;19.20;70.50;;;;;;5020468;28;20028;-67
2023/09/01 02:06:40;;;;;;;3.55;1.50;;;19.20;70.30;;;;;;5014016;28;20536;-68
2023/09/01 02:09:09;;;;;;;3.28;1.50;;;19.10;70.20;;;;;;5019193;28;20030;-67
2023/09/01 02:11:35;;;;;;;1.33;1.20;;;19.10;70.20;;;;;;5015326;28;20149;-66
2023/09/01 02:14:01;;;;;;;3.25;1.48;;;19.20;70.40;;;;;;5014829;28;20558;-64
2023/09/01 02:16:26;;;;;;;2.88;1.60;;;19.20;70.40;;;;;;5015808;28;20037;-66
2023/09/01 02:18:52;;;;;;;2.03;1.27;;;19.10;70.30;;;;;;5017292;28;20109;-67
2023/09/01 02:21:19;;;;;;;2.60;1.50;;;19.10;70.10;;;;;;5000386;28;20394;-66
2023/09/01 02:23:46;;;;;;;2.15;1.35;;;19.10;70.30;;;;;;5018850;28;20030;-66
2023/09/01 02:26:17;;;;;;;3.47;1.75;;;19.10;70.20;;;;;;5022867;28;20124;-67
2023/09/01 02:28:43;;;;;;;1.45;1.17;;;19.10;70.40;;;;;;5023527;28;20030;-67
2023/09/01 02:31:11;;;;;;;2.05;1.40;;;19.10;70.40;;;;;;5020145;28;20025;-67
2023/09/01 02:33:37;;;;;;;2.00;1.52;;;19.10;70.30;;;;;;5003066;28;20052;-67
2023/09/01 02:36:21;;;;;;;1.75;1.38;;;19.10;70.40;;;;;;5023557;28;20036;-67
2023/09/01 02:38:47;;;;;;;2.85;1.50;;;19.10;70.50;;;;;;5022400;28;20080;-65
2023/09/01 02:41:12;;;;;;;2.35;1.48;;;19.10;70.40;;;;;;5005973;28;20037;-67
2023/09/01 02:43:38;;;;;;;3.38;1.50;;;19.10;70.40;;;;;;5019864;28;20038;-64
2023/09/01 02:46:04;;;;;;;2.95;1.60;;;19.10;70.50;;;;;;5020992;28;20305;-66
2023/09/01 02:48:30;;;;;;;4.13;1.70;;;19.10;70.60;;;;;;5005084;28;20070;-66
2023/09/01 02:50:56;;;;;;;3.80;1.60;;;19.10;70.60;;;;;;5005145;28;20132;-67
2023/09/01 02:53:21;;;;;;;3.17;1.50;;;19.20;70.50;;;;;;5023160;28;20116;-65
2023/09/01 02:55:47;;;;;;;2.40;1.63;;;19.10;70.40;;;;;;5019338;28;20041;-66
2023/09/01 02:58:12;;;;;;;3.30;2.10;;;19.10;70.60;;;;;;5023703;28;20459;-67
2023/09/01 03:00:38;;;;;;;2.58;1.58;;;19.10;70.60;;;;;;5022355;28;20492;-67
2023/09/01 03:03:03;;;;;;;2.40;1.63;;;19.10;70.60;;;;;;5020721;28;20528;-67
2023/09/01 03:05:29;;;;;;;10.63;1.60;;;19.10;70.40;;;;;;5023548;28;20056;-66
2023/09/01 03:07:57;;;;;;;3.38;1.73;;;19.10;70.40;;;;;;5019906;28;20033;-67
2023/09/01 03:10:23;;;;;;;2.83;1.75;;;19.10;70.50;;;;;;5020518;28;20045;-67
2023/09/01 03:12:49;;;;;;;3.35;1.35;;;19.10;70.60;;;;;;5023830;28;20501;-67
2023/09/01 03:15:15;;;;;;;3.17;1.30;;;19.10;70.50;;;;;;5021754;28;20431;-65
2023/09/01 03:17:40;;;;;;;2.80;1.48;;;19.10;70.50;;;;;;5020342;28;20496;-66
2023/09/01 03:20:09;;;;;;;5.20;1.42;;;19.10;70.60;;;;;;5024802;28;20373;-67
2023/09/01 03:22:35;;;;;;;4.35;1.52;;;19.10;70.50;;;;;;5019952;28;20033;-67
2023/09/01 03:25:01;;;;;;;2.13;1.73;;;19.10;70.70;;;;;;5021792;28;20033;-67
2023/09/01 03:27:27;;;;;;;1.83;1.40;;;19.10;70.60;;;;;;5023334;28;20060;-67
2023/09/01 03:29:56;;;;;;;3.33;1.67;;;19.10;70.50;;;;;;5019367;28;20040;-67
2023/09/01 03:32:22;;;;;;;2.70;1.42;;;19.10;70.60;;;;;;5000943;28;20037;-67
2023/09/01 03:34:48;;;;;;;1.95;1.52;;;19.10;70.50;;;;;;5024597;28;20033;-66
2023/09/01 03:37:13;;;;;;;2.33;1.60;;;19.10;70.60;;;;;;5012766;28;20036;-68
2023/09/01 03:39:39;;;;;;;2.70;1.35;;;19.10;70.60;;;;;;5017332;28;20109;-67
2023/09/01 03:42:05;;;;;;;2.78;1.75;;;19.10;70.50;;;;;;5021498;28;20457;-68
2023/09/01 03:44:30;;;;;;;4.00;1.70;;;19.00;70.50;;;;;;5017684;28;20037;-68
2023/09/01 03:46:56;;;;;;;1.90;1.63;;;19.10;70.60;;;;;;4999723;28;20378;-66
2023/09/01 03:49:22;;;;;;;2.17;1.45;;;19.10;70.50;;;;;;5003554;28;20042;-66
2023/09/01 03:51:47;;;;;;;3.03;1.70;;;19.00;70.40;;;;;;5017412;28;20826;-66
2023/09/01 03:54:13;;;;;;;3.50;1.65;;;19.10;70.50;;;;;;5022578;28;20463;-66
2023/09/01 03:56:38;;;;;;;3.42;1.75;;;19.00;70.50;;;;;;5024794;28;20048;-66
2023/09/01 03:59:04;;;;;;;3.58;1.45;;;19.00;70.50;;;;;;5023894;28;20033;-66
2023/09/01 04:01:30;;;;;;;2.28;1.60;;;19.10;70.50;;;;;;5019089;28;20034;-68
2023/09/01 04:03:55;;;;;;;2.97;1.80;;;19.00;70.40;;;;;;5022430;28;20515;-68
2023/09/01 04:06:21;;;;;;;3.75;1.45;;;19.00;70.60;;;;;;5020004;28;20227;-68
2023/09/01 04:08:47;;;;;;;2.55;1.67;;;19.00;70.60;;;;;;5008289;28;20029;-66
2023/09/01 04:11:12;;;;;;;2.17;1.63;;;19.00;70.50;;;;;;5021139;28;20040;-66
2023/09/01 04:13:38;;;;;;;3.80;1.30;;;19.00;70.40;;;;;;5029130;28;20026;-66
2023/09/01 04:16:04;;;;;;;2.45;1.67;;;19.00;70.50;;;;;;5014369;28;20043;-68
2023/09/01 04:18:31;;;;;;;3.58;1.60;;;19.00;70.50;;;;;;5024547;28;20025;-67
2023/09/01 04:20:57;;;;;;;4.13;2.00;;;19.00;70.60;;;;;;5009081;28;20380;-68
2023/09/01 04:23:22;;;;;;;3.22;1.65;;;19.00;70.70;;;;;;5016314;28;20051;-66
2023/09/01 04:25:48;;;;;;;4.57;1.45;;;19.00;70.80;;;;;;5006404;28;20030;-66
2023/09/01 04:28:15;;;;;;;2.67;1.70;;;19.00;70.60;;;;;;5025970;28;20029;-66
2023/09/01 04:30:42;;;;;;;2.10;1.67;;;19.00;70.90;;;;;;5025527;28;20037;-66
2023/09/01 04:33:08;;;;;;;4.72;1.63;;;19.00;70.80;;;;;;5003632;28;20040;-66
2023/09/01 04:35:34;;;;;;;2.53;1.27;;;19.00;70.50;;;;;;5015501;28;20034;-65
2023/09/01 04:38:00;;;;;;;2.83;1.80;;;19.00;70.70;;;;;;5025777;28;20111;-66
2023/09/01 04:40:26;;;;;;;3.40;1.55;;;19.00;70.80;;;;;;5023883;28;20040;-66
2023/09/01 04:42:52;;;;;;;3.15;1.63;;;19.00;70.90;;;;;;5026457;28;20766;-66
2023/09/01 04:45:18;;;;;;;3.90;1.48;;;19.00;71.10;;;;;;5005315;28;20037;-66
2023/09/01 04:47:43;;;;;;;3.08;1.65;;;19.00;70.80;;;;;;5006605;28;20092;-66
2023/09/01 04:50:09;;;;;;;5.57;1.85;;;19.00;70.80;;;;;;5025018;28;20052;-66
2023/09/01 04:52:35;;;;;;;5.18;1.85;;;19.00;71.00;;;;;;5004863;28;20065;-66
2023/09/01 04:55:01;;;;;;;3.88;1.67;;;19.00;71.00;;;;;;5006772;28;20511;-66
2023/09/01 04:57:27;;;;;;;2.70;1.65;;;19.00;71.00;;;;;;5003929;28;20076;-66
2023/09/01 04:59:53;;;;;;;2.83;1.60;;;19.00;71.10;;;;;;5018938;28;20033;-66
2023/09/01 05:02:18;;;;;;;2.35;1.60;;;19.10;71.10;;;;;;5012298;28;20026;-66
2023/09/01 05:04:44;;;;;;;3.53;1.75;;;19.00;70.80;;;;;;5018926;28;20163;-66
2023/09/01 05:07:10;;;;;;;5.05;1.75;;;19.00;71.00;;;;;;5014489;28;20048;-66
2023/09/01 05:09:35;;;;;;;1.90;1.60;;;19.00;71.10;;;;;;5014488;28;20044;-66
2023/09/01 05:12:01;;;;;;;2.72;2.00;;;19.00;71.10;;;;;;5000612;28;20025;-67
2023/09/01 05:14:26;;;;;;;2.40;1.42;;;19.00;71.00;;;;;;5015627;28;20540;-66
2023/09/01 05:16:52;;;;;;;2.92;1.58;;;19.00;71.10;;;;;;5015085;28;20038;-66
2023/09/01 05:19:17;;;;;;;3.70;1.88;;;19.00;71.00;;;;;;5020778;28;20055;-65
2023/09/01 05:21:43;;;;;;;4.03;1.77;;;19.00;71.00;;;;;;5013367;28;20030;-66
2023/09/01 05:24:08;;;;;;;2.10;1.50;;;19.00;71.00;;;;;;5007629;28;20038;-67
2023/09/01 05:26:34;;;;;;;5.18;1.73;;;19.00;71.00;;;;;;5019547;28;20091;-66
2023/09/01 05:29:00;;;;;;;4.45;1.70;;;19.00;71.00;;;;;;5014514;28;20488;-66
2023/09/01 05:31:26;;;;;;;5.03;1.70;;;19.00;71.10;;;;;;5021112;28;20033;-66
2023/09/01 05:33:51;;;;;;;2.90;1.67;;;19.00;71.00;;;;;;5021308;28;20048;-65
2023/09/01 05:36:17;;;;;;;8.00;1.48;;;19.00;70.80;;;;;;5022787;28;20385;-65
2023/09/01 05:38:42;;;;;;;2.72;1.90;;;19.10;70.90;;;;;;5022192;28;20091;-66
2023/09/01 05:41:12;;;;;;;4.00;1.50;;;19.00;71.00;;;;;;5026274;28;20063;-65
2023/09/01 05:43:38;;;;;;;2.13;1.33;;;19.00;70.90;;;;;;5020145;28;20025;-66
2023/09/01 05:46:04;;;;;;;4.18;1.60;;;19.00;70.90;;;;;;5003162;28;20551;-65
2023/09/01 05:48:29;;;;;;;2.53;1.58;;;19.10;70.70;;;;;;5020869;28;20299;-68
2023/09/01 05:50:55;;;;;;;4.50;1.80;;;19.10;70.60;;;;;;5025823;28;20034;-67
2023/09/01 05:53:21;;;;;;;3.88;1.50;;;19.10;70.40;;;;;;5003858;28;20099;-65
2023/09/01 05:55:47;;;;;;;3.42;1.88;;;19.10;70.20;;;;;;5017991;28;20030;-65
2023/09/01 05:58:12;;;;;;;3.60;1.55;;;19.10;70.10;;;;;;5028751;28;20094;-68
2023/09/01 06:00:38;;;;;;;4.22;1.70;;;19.20;70.10;;;;;;5012318;28;20045;-68
2023/09/01 06:03:04;;;;;;;4.97;1.90;;;19.20;70.20;;;;;;5012320;28;20037;-67
2023/09/01 06:05:30;;;;;;;4.28;1.75;;;19.20;70.20;;;;;;5013235;28;20026;-69
2023/09/01 06:07:56;;;;;;;4.18;1.67;;;19.20;70.00;;;;;;5013100;28;20124;-67
2023/09/01 06:10:22;;;;;;;6.28;1.95;;;19.20;70.00;;;;;;5029855;28;20515;-68
2023/09/01 06:12:47;;;;;;;3.08;1.98;;;19.20;69.90;;;;;;5027887;28;20044;-67
2023/09/01 06:15:13;;;;;;;3.13;1.70;;;19.20;69.80;;;;;;5028664;28;20049;-68
2023/09/01 06:17:39;;;;;;;3.92;1.60;;;19.20;69.80;;;;;;5026463;28;20468;-68
2023/09/01 06:20:06;;;;;;;7.82;2.72;;;19.20;69.80;;;;;;5028755;28;20092;-69
2023/09/01 06:22:32;;;;;;;5.00;1.90;;;19.20;69.70;;;;;;5024567;28;20037;-69
2023/09/01 06:24:59;;;;;;;5.55;2.20;;;19.20;69.60;;;;;;5024917;28;20052;-69
2023/09/01 06:27:25;;;;;;;4.70;2.53;;;19.20;70.40;;;;;;5027062;28;20474;-68
2023/09/01 06:29:50;;;;;;;3.35;2.00;;;19.20;69.60;;;;;;5003176;28;20166;-66
2023/09/01 06:32:16;;;;;;;2.90;2.05;;;19.20;69.60;;;;;;5029362;28;20036;-67
2023/09/01 06:34:42;;;;;;;5.60;2.60;;;19.20;69.60;;;;;;5027590;28;20038;-69
2023/09/01 06:37:08;;;;;;;4.78;2.40;;;19.20;69.60;;;;;;5012152;28;20025;-69
2023/09/01 06:39:33;;;;;;;7.22;2.92;;;19.10;69.60;;;;;;5029626;28;20060;-68
2023/09/01 06:41:59;;;;;;;4.10;2.40;;;19.10;69.60;;;;;;5026964;28;20045;-71
2023/09/01 06:44:24;;;;;;;5.05;2.40;;;19.20;69.80;;;;;;5030771;28;20033;-70
2023/09/01 06:46:50;;;;;;;6.78;2.67;;;19.20;69.80;;;;;;5011589;28;20093;-69
2023/09/01 06:49:16;;;;;;;7.20;4.38;;;19.10;69.70;;;;;;5031084;28;20036;-68
2023/09/01 06:51:42;;;;;;;9.38;4.90;;;19.20;70.00;;;;;;5024844;28;20032;-69
2023/09/01 06:54:07;;;;;;;8.88;5.68;;;19.20;70.00;;;;;;5024661;28;20049;-69
2023/09/01 06:56:33;;;;;;;18.27;7.70;;;19.20;70.10;;;;;;5007876;28;20511;-70
2023/09/01 06:58:58;;;;;;;13.77;7.13;;;19.20;70.10;;;;;;5014817;28;20030;-68
2023/09/01 07:01:24;;;;;;;17.63;7.10;;;19.20;70.10;;;;;;5022755;28;20038;-65
2023/09/01 07:03:50;;;;;;;12.65;6.85;;;19.20;70.10;;;;;;5025924;28;20061;-67
2023/09/01 07:06:16;;;;;;;13.95;6.93;;;19.20;70.30;;;;;;5026321;28;20029;-67
2023/09/01 07:08:41;;;;;;;14.32;7.22;;;19.20;70.30;;;;;;5006947;28;20044;-69
2023/09/01 07:11:10;;;;;;;24.88;8.02;;;19.20;70.20;;;;;;5010941;28;20049;-69
2023/09/01 07:13:36;;;;;;;14.77;6.93;;;19.20;70.30;;;;;;5028767;28;20036;-70
2023/09/01 07:16:01;;;;;;;13.90;5.95;;;19.20;70.20;;;;;;5011115;28;20469;-69
2023/09/01 07:18:28;;;;;;;15.23;6.97;;;19.20;70.50;;;;;;5025104;28;20030;-66
2023/09/01 07:20:58;;;;;;;11.07;5.30;;;19.20;70.30;;;;;;5015732;28;20112;-68
2023/09/01 07:23:24;;;;;;;14.48;5.85;;;19.20;69.90;;;;;;5022502;28;20030;-69
2023/09/01 07:25:49;;;;;;;13.20;5.35;;;19.20;70.10;;;;;;5022476;28;20223;-68
2023/09/01 07:28:15;;;;;;;12.02;5.82;;;19.20;70.20;;;;;;5005303;28;20029;-69
2023/09/01 07:30:40;;;;;;;8.45;4.57;;;19.20;70.30;;;;;;5012087;28;21529;-68
2023/09/01 07:33:06;;;;;;;10.88;5.20;;;19.20;70.20;;;;;;5009185;28;20421;-69
2023/09/01 07:35:31;;;;;;;10.50;4.57;;;19.20;70.10;;;;;;5027880;28;20116;-69
2023/09/01 07:37:57;;;;;;;10.07;5.25;;;19.20;70.10;;;;;;5017628;28;20033;-69
2023/09/01 07:40:23;;;;;;;13.40;5.20;;;19.10;69.90;;;;;;5010629;28;20030;-68
2023/09/01 07:42:49;;;;;;;12.90;4.68;;;19.20;70.80;;;;;;5008976;28;20485;-68
2023/09/01 07:45:15;;;;;;;12.07;4.22;;;19.20;70.90;;;;;;5027328;28;20468;-68
2023/09/01 07:47:40;;;;;;;9.55;3.50;;;19.20;71.50;;;;;;5025297;28;20066;-68
2023/09/01 07:50:07;;;;;;;6.78;3.45;;;19.20;71.00;;;;;;5026102;28;20033;-68
2023/09/01 07:52:32;;;;;;;10.93;3.00;;;19.20;70.90;;;;;;5009788;28;20044;-68
2023/09/01 07:54:58;;;;;;;7.20;2.67;;;19.20;70.70;;;;;;5026619;28;20415;-69
2023/09/01 07:57:23;;;;;;;5.43;3.03;;;19.20;70.50;;;;;;5027457;28;20123;-69
2023/09/01 07:59:49;;;;;;;6.05;2.40;;;19.20;70.40;;;;;;5009523;28;20541;-69
2023/09/01 08:02:14;;;;;;;3.70;2.80;;;19.20;70.30;;;;;;5024800;28;20040;-68
2023/09/01 08:04:40;;;;;;;3.92;2.10;;;19.20;70.20;;;;;;5007093;28;20065;-68
2023/09/01 08:07:05;;;;;;;4.72;1.98;;;19.20;70.10;;;;;;5026306;28;20508;-68
2023/09/01 08:09:31;;;;;;;5.25;1.85;;;19.10;70.10;;;;;;5026801;28;20523;-68
2023/09/01 08:11:56;;;;;;;4.25;1.92;;;19.10;70.00;;;;;;5029206;28;20076;-69
2023/09/01 08:14:22;;;;;;;3.58;1.80;;;19.10;70.00;;;;;;5022975;28;20038;-69
2023/09/01 08:16:48;;;;;;;3.38;1.90;;;19.10;70.60;;;;;;5003735;28;20382;-68
2023/09/01 08:19:14;;;;;;;3.60;1.45;;;19.10;70.00;;;;;;5029047;28;20108;-69
2023/09/01 08:21:40;;;;;;;3.03;1.65;;;19.10;70.00;;;;;;5029855;28;20038;-69
2023/09/01 08:24:06;;;;;;;2.15;1.42;;;19.10;70.00;;;;;;5024926;28;20032;-69
2023/09/01 08:26:33;;;;;;;3.80;1.85;;;19.10;70.00;;;;;;5012018;28;20034;-67
2023/09/01 08:28:59;;;;;;;2.20;1.40;;;19.10;70.00;;;;;;5007057;28;20034;-69
2023/09/01 08:31:25;;;;;;;3.63;1.48;;;19.00;70.00;;;;;;5025404;28;20041;-69
2023/09/01 08:33:51;;;;;;;3.28;1.30;;;19.10;70.10;;;;;;5010436;28;20093;-69
2023/09/01 08:36:17;;;;;;;1.42;1.33;;;19.10;70.20;;;;;;5023376;28;20030;-68
2023/09/01 08:38:43;;;;;;;2.05;1.00;;;19.10;70.20;;;;;;5019313;28;20033;-69
2023/09/01 08:41:08;;;;;;;1.42;1.20;;;19.10;70.20;;;;;;5022435;28;20104;-69
2023/09/01 08:43:36;;;;;;;2.22;0.90;;;19.00;70.20;;;;;;5027182;28;20056;-68
2023/09/01 08:46:03;;;;;;;1.38;0.93;;;19.00;70.10;;;;;;5024198;28;20077;-69
2023/09/01 08:48:33;;;;;;;1.65;1.30;;;19.00;70.10;;;;;;5027749;28;20496;-68
2023/09/01 08:51:00;;;;;;;2.10;1.13;;;19.00;70.00;;;;;;5020549;28;20033;-69
2023/09/01 08:53:25;;;;;;;2.13;1.25;;;19.00;70.10;;;;;;5005999;28;20030;-69
2023/09/01 08:55:52;;;;;;;1.27;1.00;;;19.00;70.10;;;;;;5007115;28;20044;-69
2023/09/01 08:58:18;;;;;;;2.03;1.35;;;19.10;70.00;;;;;;5005169;28;20030;-68
2023/09/01 09:00:44;;;;;;;1.45;1.00;;;19.10;70.00;;;;;;5024883;28;20088;-69
2023/09/01 09:03:13;;;;;;;2.00;1.02;;;19.10;70.00;;;;;;5009966;28;20494;-68
2023/09/01 09:05:39;;;;;;;1.58;1.10;;;19.10;70.10;;;;;;5019757;28;20040;-69
2023/09/01 09:08:07;;;;;;;1.85;0.90;;;19.00;70.00;;;;;;5006845;28;20128;-69
2023/09/01 09:10:38;;;;;;;2.05;1.00;;;19.00;70.10;;;;;;5026363;28;20033;-68
2023/09/01 09:13:20;;;;;;;2.03;0.90;;;19.10;70.20;;;;;;5008074;28;20030;-68
2023/09/01 09:15:45;;;;;;;1.25;1.00;;;19.10;70.80;;;;;;5025091;28;20045;-68
2023/09/01 09:18:28;;;;;;;1.77;1.13;;;19.00;70.10;;;;;;5011355;28;20276;-69
2023/09/01 09:20:54;;;;;;;3.92;1.02;;;19.10;70.00;;;;;;5016689;28;20500;-69
2023/09/01 09:23:19;;;;;;;1.67;1.00;;;19.10;70.00;;;;;;5012537;28;20087;-68
2023/09/01 09:25:45;;;;;;;1.17;0.90;;;19.10;70.00;;;;;;5027467;28;20063;-68
2023/09/01 09:28:12;;;;;;;1.90;1.02;;;19.10;70.00;;;;;;5026805;28;20036;-68
2023/09/01 09:30:51;;;;;;;1.17;0.90;;;19.10;70.00;;;;;;5028353;28;20029;-68
2023/09/01 09:33:29;;;;;;;1.25;1.02;;;19.10;70.10;;;;;;5005652;28;20029;-68
2023/09/01 09:35:54;;;;;;;0.90;0.73;;;19.10;70.20;;;;;;5005502;28;20490;-68
2023/09/01 09:38:21;;;;;;;1.08;0.85;;;19.10;70.10;;;;;;5025483;28;20168;-68
2023/09/01 09:40:57;;;;;;;1.45;1.00;;;19.10;70.10;;;;;;5025300;28;20034;-68
2023/09/01 09:43:22;;;;;;;1.23;0.82;;;19.10;70.00;;;;;;5024911;28;20582;-67
2023/09/01 09:45:51;;;;;;;1.88;0.80;;;19.10;70.10;;;;;;5022084;28;20034;-68
2023/09/01 09:48:16;;;;;;;1.05;0.95;;;19.10;70.10;;;;;;5026114;28;20107;-68
2023/09/01 09:50:43;;;;;;;1.60;0.93;;;19.10;70.10;;;;;;5007352;28;20591;-68
2023/09/01 09:53:14;;;;;;;0.95;0.80;;;19.10;70.10;;;;;;5025821;28;20033;-68
2023/09/01 09:55:44;;;;;;;1.17;0.70;;;19.10;70.20;;;;;;5006751;28;20033;-69
2023/09/01 09:58:11;;;;;;;0.95;0.60;;;19.10;70.20;;;;;;5012269;28;20235;-68
2023/09/01 10:00:47;;;;;;;1.27;0.70;;;19.10;70.30;;;;;;5017413;28;20283;-67
2023/09/01 10:03:14;;;;;;;0.90;0.85;;;19.10;70.30;;;;;;5019097;28;20172;-68
2023/09/01 10:05:42;;;;;;;1.63;1.20;;;19.10;70.30;;;;;;5024501;28;20033;-68
2023/09/01 10:08:08;;;;;;;1.50;0.80;;;19.10;70.30;;;;;;4998985;28;20408;-67
2023/09/01 10:10:35;;;;;;;2.00;1.00;;;19.10;70.20;;;;;;5014481;28;20025;-68
2023/09/01 10:13:06;;;;;;;1.63;0.85;;;19.10;70.40;;;;;;5013569;28;20025;-68
2023/09/01 10:15:33;;;;;;;1.13;0.90;;;19.10;70.50;;;;;;5005089;28;20380;-68
2023/09/01 10:18:08;;;;;;;5.75;1.55;;;19.10;70.50;;;;;;5018060;28;20037;-68
2023/09/01 10:20:35;;;;;;;3.03;0.93;;;19.10;70.50;;;;;;5006051;28;20050;-67
2023/09/01 10:23:05;;;;;;;2.20;0.98;;;19.10;70.50;;;;;;5025548;28;20093;-67
2023/09/01 10:25:31;;;;;;;3.25;0.95;;;19.10;70.50;;;;;;5022108;28;20132;-67
2023/09/01 10:28:01;;;;;;;1.48;0.88;;;19.10;70.50;;;;;;5020854;28;20149;-68
2023/09/01 10:30:29;;;;;;;0.90;0.65;;;19.10;70.50;;;;;;5025601;28;20544;-68
2023/09/01 10:33:11;;;;;;;1.30;0.80;;;19.10;70.40;;;;;;5014134;28;20068;-68
2023/09/01 10:35:40;;;;;;;0.95;0.75;;;19.10;70.50;;;;;;5022044;28;20054;-68
2023/09/01 10:38:34;;;;;;;1.55;0.80;;;19.10;70.70;;;;;;4993048;28;20026;-68
2023/09/01 10:41:00;;;;;;;2.33;0.80;;;19.10;70.70;;;;;;5003121;28;20083;-68
2023/09/01 10:43:35;;;;;;;1.42;0.60;;;19.10;70.60;;;;;;5023446;28;20037;-67
2023/09/01 10:46:13;;;;;;;5.55;0.90;;;19.10;70.50;;;;;;5020963;28;20400;-68
2023/09/01 10:48:57;;;;;;;0.88;0.65;;;19.00;70.70;;;;;;5023482;28;20044;-67
2023/09/01 10:51:34;;;;;;;1.00;0.73;;;19.10;70.60;;;;;;5020644;28;20029;-68
2023/09/01 10:54:20;;;;;;;2.33;0.80;;;19.10;70.60;;;;;;5020454;28;20109;-68
2023/09/01 10:56:56;;;;;;;0.82;0.70;;;19.10;70.70;;;;;;5018822;28;20559;-68
2023/09/01 10:59:35;;;;;;;1.30;0.80;;;19.10;70.50;;;;;;5021548;28;20461;-67
2023/09/01 11:02:22;;;;;;;1.40;0.70;;;19.10;70.50;;;;;;5021991;28;20034;-68
2023/09/01 11:04:48;;;;;;;2.50;0.93;;;19.10;70.50;;;;;;5022932;28;20025;-66
2023/09/01 11:07:15;;;;;;;0.93;0.80;;;19.10;70.50;;;;;;5018512;28;20065;-68
2023/09/01 11:09:42;;;;;;;1.10;0.80;;;19.10;70.50;;;;;;5018653;28;20022;-67
2023/09/01 11:12:09;;;;;;;0.70;0.70;;;19.10;70.50;;;;;;5021990;28;20041;-69
2023/09/01 11:14:37;;;;;;;0.70;0.63;;;19.10;70.50;;;;;;5022031;28;20512;-68
2023/09/01 11:17:03;;;;;;;1.85;0.88;;;19.10;70.50;;;;;;5000788;28;20041;-69
2023/09/01 11:19:32;;;;;;;0.60;0.60;;;19.10;70.60;;;;;;5020251;28;20071;-67
2023/09/01 11:22:01;;;;;;;0.70;0.60;;;19.10;70.40;;;;;;5020073;28;20022;-69
2023/09/01 11:24:26;;;;;;;0.68;0.50;;;19.10;70.60;;;;;;5021947;28;20068;-69
2023/09/01 11:26:52;;;;;;;1.35;0.63;;;19.10;70.70;;;;;;5019875;28;20476;-69
2023/09/01 11:29:21;;;;;;;1.00;0.80;;;19.10;70.70;;;;;;5006581;28;20080;-69
2023/09/01 11:31:47;;;;;;;3.85;1.83;;;19.10;70.70;;;;;;5019923;28;20029;-69
2023/09/01 11:34:13;;;;;;;4.15;1.55;;;19.10;70.60;;;;;;5020445;28;20407;-68
2023/09/01 11:36:46;;;;;;;3.33;1.30;;;19.10;70.80;;;;;;5019779;28;20030;-68
2023/09/01 11:39:12;;;;;;;4.85;1.80;;;19.10;70.90;;;;;;5026622;28;20053;-67
2023/09/01 11:41:38;;;;;;;4.75;2.13;;;19.00;70.70;;;;;;5002548;28;20504;-68
2023/09/01 11:44:04;;;;;;;4.57;2.38;;;19.10;70.80;;;;;;5020356;28;20143;-68
2023/09/01 11:46:34;;;;;;;7.50;2.47;;;19.10;70.90;;;;;;5020924;28;20169;-67
2023/09/01 11:49:00;;;;;;;5.38;2.00;;;19.10;70.70;;;;;;5019104;28;20037;-68
2023/09/01 11:51:33;;;;;;;5.68;2.15;;;19.10;71.00;;;;;;5010434;28;20030;-68
2023/09/01 11:53:59;;;;;;;4.97;1.92;;;19.10;70.90;;;;;;5018356;28;20108;-68
2023/09/01 11:56:25;;;;;;;3.10;1.60;;;19.10;70.90;;;;;;5015779;28;20580;-68
2023/09/01 11:58:55;;;;;;;2.97;1.42;;;19.10;70.80;;;;;;5005024;28;20028;-67
2023/09/01 12:01:23;;;;;;;2.90;1.42;;;19.10;70.90;;;;;;4994873;28;20026;-68
2023/09/01 12:03:50;;;;;;;4.57;1.48;;;19.10;70.80;;;;;;4997381;28;20417;-68
2023/09/01 12:06:27;;;;;;;4.35;1.85;;;19.10;70.90;;;;;;5018246;28;20064;-68
2023/09/01 12:09:08;;;;;;;1.75;1.17;;;19.10;70.80;;;;;;5016076;28;20688;-69
2023/09/01 12:11:33;;;;;;;2.78;1.10;;;19.10;70.90;;;;;;5020669;28;20041;-68
2023/09/01 12:14:20;;;;;;;3.92;1.38;;;19.10;70.80;;;;;;5021703;28;20025;-67
2023/09/01 12:16:52;;;;;;;3.33;1.33;;;19.10;70.70;;;;;;5009341;28;20044;-68
2023/09/01 12:19:20;;;;;;;3.08;1.38;;;19.10;70.90;;;;;;5020847;28;20040;-69
2023/09/01 12:21:46;;;;;;;1.90;1.00;;;19.10;70.90;;;;;;5022953;28;20095;-67
2023/09/01 12:24:11;;;;;;;1.80;0.80;;;19.10;71.00;;;;;;5024788;28;20025;-67
2023/09/01 12:26:37;;;;;;;2.50;1.15;;;19.20;70.90;;;;;;5005384;28;20037;-69
2023/09/01 12:29:03;;;;;;;1.73;1.20;;;19.20;70.90;;;;;;5020886;28;20046;-68
2023/09/01 12:31:28;;;;;;;1.63;0.70;;;19.10;71.00;;;;;;5022347;28;20144;-68
2023/09/01 12:33:54;;;;;;;1.20;1.00;;;19.10;71.00;;;;;;5023322;28;20512;-70
2023/09/01 12:36:19;;;;;;;2.90;1.10;;;19.10;70.70;;;;;;5025436;28;20033;-69
2023/09/01 12:38:45;;;;;;;2.03;0.90;;;19.10;71.20;;;;;;5025905;28;20025;-70
2023/09/01 12:41:10;;;;;;;1.85;1.13;;;19.10;71.00;;;;;;5022386;28;20026;-68
2023/09/01 12:43:36;;;;;;;1.20;0.70;;;19.20;71.20;;;;;;5022100;28;20069;-68
2023/09/01 12:46:01;;;;;;;1.30;0.77;;;19.10;71.10;;;;;;5028713;28;20025;-68
2023/09/01 12:48:27;;;;;;;1.48;0.80;;;19.10;70.90;;;;;;5010974;28;20044;-69